Airfield :
LOGIN :

Register | Disclaimer

   EN    FR    IT 

 










Legend :    VFR   Marginal VFR   IFR   Intensive IFR   Very Intensive IFR
Visi :
Ceiling :
>= 8 km
>= 3000ft
5 to 8 km
1000 to 3000 ft
1500m to 5 km
500 to 1000 ft
800 to 1500m
200 to 500 ft
< 800m
< 200 ft
Symbols :   Thunderstorms  Fog  Heavy snow  Heavy precipitations  Wind > 20 kt
SIGMETs :     Misc.  Thunderstorms  Icing  Turbulence  Mountain Waves  Volcanic Ashes






- Airport Elevation : 32 ft
- IATA code : LKZ


EGUL - RAF Lakenheath

CURRENT METAR :
  • 230416Z AUTO 14004KT 9999 SCT016 BKN075 11/11 A2974 RMK AO2 SLP074 $

EXPIRED METARs :
  • 230356Z AUTO 16005KT 9999 BKN016 OVC070 11/11 A2974 RMK AO2 CIG 015 RWY06 SLP074 T01060106 $
  • 230341Z AUTO 16005KT 9999 BKN016 OVC070 10/10 A2975 RMK AO2 CIG 016V070 BKN V SCT SLP078 $
  • 230331Z AUTO 15005KT 9999 SCT016 OVC070 10/10 A2975 RMK AO2 SLP078 $
  • 230326Z AUTO 15006KT 9999 BKN016 OVC070 10/10 A2975 RMK AO2 CIG 016V065 SLP078 $
  • 230256Z AUTO 13003KT 9999 FEW018 OVC065 10/10 A2976 RMK AO2 SLP081 T00970097 57016 $
  • 230156Z AUTO 17004KT 9999 SCT024 BKN033 10/10 A2978 RMK AO2 SLP088 T01020102 $

TAF TAF EGUL
Valid from the 23 at 04:00 until the 24 at 10:00 UTC


230400Z 2304/2410 20005KT 8000 BR BKN015 610602 QNH2975INS
BECMG 2307/2308 22012KT 9999 NSW BKN012 QNH2970INS
BECMG 2311/2312 23015G20KT 8000 -SHRA BKN020 BKN060 610604 QNH2971INS
BECMG 2317/2318 25012G18KT 9999 NSW SCT020 QNH2974INS
BECMG 2406/2407 20015G25KT 9999 BKN030 QNH2971INS TX13/2313Z TN09/2305Z



MET'MAP, your aeronautical weather chart ! - Copyright ORBIFLY December 2007 - Disclaimer

ORBIFLY MET'MAP TEAM :

Programming & Development : Alexandra Zaïnal
Concept & original design : Baudouin d'Aumeries
Assistance for programming : Marc-Olivier Méhu
Technical & hardware support : Manuel Goepfert

Contact : metmap@orbifly.com




SOURCES & CREDITS :

   NOAA